Time;durP1;ratioP1;P1;durP2;ratioP2;P2;SDS_P1;SDS_P2;PMS_P1;PMS_P2;Temp;Humidity;BMP_temperature;BMP_pressure;BME280_temperature;BME280_humidity;BME280_pressure;Samples;Min_cycle;Max_cycle;Signal;HPM_P1;HPM_P2
2021/11/09 00:01:28;;;;;;;212.63;31.23;;;;;;;2.00;100.00;99686.56;5010954;28;20022;-87
2021/11/09 00:10:08;;;;;;;89.63;17.58;;;;;;;1.98;100.00;99683.03;5012267;28;20412;-87
2021/11/09 00:12:46;;;;;;;145.27;22.08;;;;;;;1.98;100.00;99689.13;5007773;28;20022;-87
2021/11/09 00:15:15;;;;;;;164.95;26.73;;;;;;;1.90;100.00;99690.56;5001484;28;20026;-87
2021/11/09 00:17:41;;;;;;;200.13;29.08;;;;;;;1.82;100.00;99699.84;5013050;28;20018;-87
2021/11/09 00:20:09;;;;;;;186.75;27.75;;;;;;;1.93;100.00;99702.78;5016443;28;20018;-87
2021/11/09 00:22:35;;;;;;;221.90;28.55;;;;;;;1.94;100.00;99695.06;5014263;28;20097;-87
2021/11/09 00:25:00;;;;;;;209.82;28.00;;;;;;;1.90;100.00;99689.72;5006422;28;20021;-87
2021/11/09 00:27:26;;;;;;;168.98;25.52;;;;;;;1.79;100.00;99685.88;5014954;28;20021;-87
2021/11/09 00:29:52;;;;;;;133.43;18.13;;;;;;;1.52;100.00;99685.00;5019115;28;20013;-87
2021/11/09 00:32:18;;;;;;;89.38;16.30;;;;;;;1.71;100.00;99684.78;5014457;28;20018;-87
2021/11/09 00:34:45;;;;;;;59.00;14.07;;;;;;;1.82;100.00;99683.38;5011542;28;20061;-87
2021/11/09 00:37:11;;;;;;;73.22;16.55;;;;;;;1.83;100.00;99685.13;5011775;28;20029;-87
2021/11/09 00:39:38;;;;;;;82.28;16.77;;;;;;;1.89;100.00;99682.75;5007039;28;20018;-87
2021/11/09 00:42:04;;;;;;;128.90;21.85;;;;;;;1.92;100.00;99677.63;5009646;28;20335;-87
2021/11/09 00:44:30;;;;;;;89.53;18.40;;;;;;;1.91;100.00;99683.69;5006613;28;20249;-87
2021/11/09 00:46:56;;;;;;;87.88;16.83;;;;;;;1.86;100.00;99680.94;5013215;28;20020;-87
2021/11/09 00:49:22;;;;;;;91.65;18.88;;;;;;;1.92;100.00;99685.44;5019654;28;20321;-87
2021/11/09 00:51:50;;;;;;;112.28;19.98;;;;;;;1.91;100.00;99681.97;5014524;28;20018;-87
2021/11/09 00:54:16;;;;;;;53.40;14.13;;;;;;;1.85;100.00;99688.69;5013096;28;20049;-87
2021/11/09 00:56:43;;;;;;;69.07;14.00;;;;;;;1.70;100.00;99698.56;5017224;28;20089;-87
2021/11/09 00:59:09;;;;;;;36.22;10.30;;;;;;;1.79;100.00;99701.47;5005876;28;20025;-87
2021/11/09 01:01:35;;;;;;;46.30;11.98;;;;;;;1.70;100.00;99691.66;5012474;28;20018;-87
2021/11/09 01:04:01;;;;;;;60.75;13.30;;;;;;;1.58;100.00;99695.59;5019076;28;20017;-87
2021/11/09 01:06:26;;;;;;;56.15;14.07;;;;;;;1.65;100.00;99705.34;5015077;28;20034;-87
2021/11/09 01:08:53;;;;;;;56.58;12.50;;;;;;;1.71;100.00;99701.22;5005807;28;20329;-87
2021/11/09 01:11:19;;;;;;;48.92;14.15;;;;;;;1.81;100.00;99700.66;5017176;28;20018;-87
2021/11/09 01:13:46;;;;;;;74.50;15.25;;;;;;;1.78;100.00;99699.69;5005681;28;20018;-87
2021/11/09 01:16:13;;;;;;;78.35;15.80;;;;;;;1.67;100.00;99706.25;5009723;28;20030;-87
2021/11/09 01:18:46;;;;;;;72.28;17.02;;;;;;;1.74;100.00;99700.44;5006219;28;20018;-87
2021/11/09 01:21:14;;;;;;;65.95;14.77;;;;;;;1.81;100.00;99705.00;5016815;28;20389;-87
2021/11/09 01:23:44;;;;;;;116.47;16.80;;;;;;;1.72;100.00;99689.13;5005635;28;20381;-87
2021/11/09 01:26:10;;;;;;;55.22;14.02;;;;;;;1.72;100.00;99690.00;4999621;28;20018;-87
2021/11/09 01:28:37;;;;;;;69.78;14.60;;;;;;;1.67;99.89;99695.88;5017745;28;20018;-87
2021/11/09 01:31:05;;;;;;;87.38;15.10;;;;;;;1.65;100.00;99692.34;5017517;28;20022;-87
2021/11/09 01:33:30;;;;;;;71.60;16.63;;;;;;;1.58;99.93;99686.06;5010247;28;20021;-87
2021/11/09 01:35:57;;;;;;;76.57;14.10;;;;;;;1.61;100.00;99700.84;5019875;28;20025;-87
2021/11/09 01:38:22;;;;;;;51.25;14.25;;;;;;;1.63;100.00;99694.00;5019765;28;20017;-87
2021/11/09 01:40:48;;;;;;;78.13;15.90;;;;;;;1.61;100.00;99696.56;5006550;28;20018;-87
2021/11/09 01:43:15;;;;;;;73.65;14.95;;;;;;;1.59;100.00;99686.97;5013672;28;20022;-87
2021/11/09 01:45:43;;;;;;;65.68;14.32;;;;;;;1.61;99.90;99680.09;5007698;28;20023;-87
2021/11/09 01:48:09;;;;;;;78.85;14.68;;;;;;;1.59;99.62;99687.81;5016760;28;20030;-87
2021/11/09 01:50:38;;;;;;;65.15;15.10;;;;;;;1.58;99.44;99690.41;5018032;28;20022;-87
2021/11/09 01:53:05;;;;;;;52.95;13.25;;;;;;;1.55;99.25;99690.31;5005360;28;20093;-87
2021/11/09 01:55:31;;;;;;;61.55;13.45;;;;;;;1.55;99.27;99688.56;5009722;28;20057;-87
2021/11/09 01:57:57;;;;;;;71.28;15.30;;;;;;;1.55;100.00;99685.97;5017247;28;20030;-87
2021/11/09 02:00:36;;;;;;;60.28;15.18;;;;;;;1.50;100.00;99697.03;5022477;28;20198;-87
2021/11/09 02:03:04;;;;;;;69.30;14.40;;;;;;;1.52;99.75;99692.78;5030699;28;20022;-87
2021/11/09 02:05:30;;;;;;;76.82;15.45;;;;;;;1.55;99.82;99700.69;5009601;28;20256;-87
2021/11/09 02:07:58;;;;;;;83.38;15.45;;;;;;;1.54;98.98;99696.31;5017893;28;20038;-87
2021/11/09 02:10:27;;;;;;;71.38;13.80;;;;;;;1.49;99.18;99690.09;5023121;28;20017;-87
2021/11/09 02:12:53;;;;;;;53.97;13.55;;;;;;;1.27;99.05;99703.19;5009967;28;20090;-87
2021/11/09 02:15:19;;;;;;;45.05;11.98;;;;;;;1.31;99.47;99705.03;5010651;28;20224;-87
2021/11/09 02:17:46;;;;;;;69.70;14.18;;;;;;;1.35;99.56;99704.31;5020204;28;20022;-87
2021/11/09 02:20:15;;;;;;;34.03;11.20;;;;;;;1.25;99.38;99710.00;5013752;28;20018;-87
2021/11/09 02:22:41;;;;;;;46.25;12.35;;;;;;;1.36;99.91;99704.34;5020527;28;20029;-87
2021/11/09 02:25:11;;;;;;;86.80;13.05;;;;;;;1.19;100.00;99699.44;5014288;28;20028;-87
2021/11/09 02:27:37;;;;;;;50.28;12.73;;;;;;;1.26;100.00;99707.47;5018443;28;20030;-87
2021/11/09 02:30:04;;;;;;;34.38;11.85;;;;;;;1.30;100.00;99705.88;5008874;28;20301;-87
2021/11/09 02:32:30;;;;;;;48.30;11.80;;;;;;;1.38;100.00;99713.09;5013444;28;20029;-87
2021/11/09 02:34:56;;;;;;;59.95;11.73;;;;;;;1.32;99.67;99701.59;5016828;28;20026;-87
2021/11/09 02:37:21;;;;;;;40.13;13.73;;;;;;;1.35;99.48;99701.72;5016019;28;20026;-87
2021/11/09 02:39:47;;;;;;;46.13;11.60;;;;;;;1.31;99.34;99702.44;5023043;28;20041;-87
2021/11/09 02:42:16;;;;;;;34.20;10.73;;;;;;;1.36;99.27;99717.31;5011677;28;20063;-87
2021/11/09 02:45:01;;;;;;;39.38;11.73;;;;;;;1.35;99.46;99707.78;5024267;28;20084;-87
2021/11/09 02:47:30;;;;;;;27.05;9.30;;;;;;;1.32;99.03;99706.78;5008697;28;20018;-87
2021/11/09 02:50:07;;;;;;;34.10;10.63;;;;;;;1.24;99.40;99709.13;5022378;28;20018;-87
2021/11/09 02:52:33;;;;;;;47.92;12.32;;;;;;;1.13;99.46;99705.28;5013757;28;20018;-87
2021/11/09 02:55:08;;;;;;;70.25;11.32;;;;;;;1.16;99.60;99701.91;5008031;28;20026;-87
2021/11/09 03:00:23;;;;;;;26.10;10.15;;;;;;;0.99;99.69;99695.28;5013234;28;20337;-87
2021/11/09 03:02:54;;;;;;;37.63;10.70;;;;;;;0.97;99.54;99696.91;5010078;28;20053;-87
2021/11/09 03:07:50;;;;;;;37.78;11.02;;;;;;;1.10;100.00;99714.66;5006055;28;20041;-87
2021/11/09 03:10:27;;;;;;;72.05;12.70;;;;;;;1.14;100.00;99717.41;5005097;28;20062;-87
2021/11/09 03:12:53;;;;;;;45.75;10.93;;;;;;;1.11;100.00;99706.06;5017817;28;20077;-87
2021/11/09 03:15:24;;;;;;;55.85;11.25;;;;;;;1.10;100.00;99709.47;5016616;28;20030;-87
2021/11/09 03:17:54;;;;;;;28.98;9.50;;;;;;;1.11;99.73;99700.88;5019995;28;20013;-87
2021/11/09 03:20:37;;;;;;;26.20;10.32;;;;;;;1.16;99.31;99712.28;5021465;28;20313;-87
2021/11/09 03:45:08;;;;;;;28.30;8.75;;;;;;;0.65;97.87;99707.84;5007860;28;20020;-87
2021/11/09 03:47:39;;;;;;;26.42;8.73;;;;;;;0.60;97.74;99706.81;5019772;28;20021;-87
2021/11/09 03:50:08;;;;;;;25.75;9.05;;;;;;;0.54;97.98;99714.34;5020022;28;20018;-87
2021/11/09 03:52:41;;;;;;;51.80;9.48;;;;;;;0.47;98.32;99708.06;5009314;28;20014;-87
2021/11/09 03:55:11;;;;;;;17.95;9.15;;;;;;;0.48;99.45;99708.94;5022052;28;20113;-87
2021/11/09 04:00:42;;;;;;;29.08;7.57;;;;;;;0.54;98.83;99709.19;5008158;28;20029;-87
2021/11/09 04:03:23;;;;;;;23.60;8.80;;;;;;;0.56;98.52;99710.09;5002015;28;20026;-88
2021/11/09 04:05:52;;;;;;;16.33;8.32;;;;;;;0.60;98.86;99712.00;5013470;28;20087;-88
2021/11/09 04:08:33;;;;;;;43.92;9.85;;;;;;;0.55;99.71;99710.94;5021117;28;20018;-90
2021/11/09 04:11:49;;;;;;;29.43;9.30;;;;;;;0.51;100.00;99709.06;5015411;28;20319;-88
2021/11/09 05:09:08;;;;;;;18.55;6.65;;;;;;;0.12;97.96;99702.41;5011208;28;20068;-88
2021/11/09 05:11:34;;;;;;;25.48;8.00;;;;;;;0.05;98.91;99714.19;5023526;28;20044;-89
2021/11/09 05:13:59;;;;;;;15.25;7.07;;;;;;;0.08;99.04;99708.25;5022926;28;20029;-88
2021/11/09 05:16:25;;;;;;;14.95;6.97;;;;;;;0.03;98.67;99715.84;5024011;28;20026;-89
2021/11/09 05:18:50;;;;;;;21.42;6.90;;;;;;;0.08;98.24;99706.56;5023930;28;20049;-89
2021/11/09 05:21:15;;;;;;;13.35;6.65;;;;;;;0.08;98.26;99726.38;5024126;28;20025;-89
2021/11/09 05:23:42;;;;;;;19.15;6.80;;;;;;;-0.04;98.91;99722.50;5024360;28;20026;-89
2021/11/09 05:26:07;;;;;;;27.17;6.57;;;;;;;-0.03;98.25;99719.06;5023979;28;20097;-89
2021/11/09 05:28:33;;;;;;;17.67;6.53;;;;;;;-0.03;98.07;99729.44;5023876;28;20333;-89
2021/11/09 05:30:58;;;;;;;11.23;5.63;;;;;;;-0.05;97.98;99725.03;5024204;28;20029;-89
2021/11/09 05:33:24;;;;;;;15.23;6.72;;;;;;;-0.07;97.58;99732.72;5023997;28;20213;-89
2021/11/09 05:35:51;;;;;;;17.30;6.22;;;;;;;-0.08;97.61;99736.16;5028226;28;20026;-89
2021/11/09 05:38:27;;;;;;;14.20;6.57;;;;;;;-0.12;97.24;99739.41;5027871;28;20096;-89
2021/11/09 05:40:57;;;;;;;11.55;6.07;;;;;;;-0.30;97.98;99743.88;5027805;28;20026;-89
2021/11/09 05:43:23;;;;;;;12.70;6.10;;;;;;;-0.26;97.91;99747.44;5027771;28;20024;-89
2021/11/09 05:45:49;;;;;;;12.77;5.93;;;;;;;-0.26;97.62;99745.75;5027589;28;20013;-88
2021/11/09 05:48:15;;;;;;;14.52;6.72;;;;;;;-0.25;97.79;99746.63;5027673;28;20025;-89
2021/11/09 05:50:41;;;;;;;12.13;6.28;;;;;;;-0.30;97.48;99738.69;5028056;28;20068;-89
2021/11/09 05:53:06;;;;;;;12.70;6.47;;;;;;;-0.36;97.33;99733.25;5027456;28;20104;-89
2021/11/09 05:55:31;;;;;;;12.60;6.18;;;;;;;-0.28;97.28;99742.19;5027663;28;20022;-89
2021/11/09 05:57:57;;;;;;;13.25;6.13;;;;;;;-0.26;97.73;99744.84;5027596;28;20018;-89
2021/11/09 06:00:22;;;;;;;11.95;6.00;;;;;;;-0.19;97.80;99758.09;5027180;28;20316;-88
2021/11/09 06:02:48;;;;;;;15.45;7.82;;;;;;;-0.21;97.84;99754.59;5027385;28;20017;-89
2021/11/09 06:05:13;;;;;;;8.10;4.90;;;;;;;-0.34;97.49;99747.13;5027116;28;20018;-89
2021/11/09 06:07:39;;;;;;;13.40;6.50;;;;;;;-0.32;97.85;99760.13;5027135;28;20108;-88
2021/11/09 06:10:05;;;;;;;11.65;5.57;;;;;;;-0.35;97.09;99760.00;5027238;28;20017;-89
2021/11/09 06:12:31;;;;;;;16.40;6.80;;;;;;;-0.30;97.25;99767.16;5027358;28;20179;-89
2021/11/09 06:14:56;;;;;;;13.13;6.45;;;;;;;-0.28;97.44;99762.91;5027273;28;20029;-89
2021/11/09 06:17:22;;;;;;;11.18;5.80;;;;;;;-0.32;97.12;99766.19;5027412;28;20033;-89
2021/11/09 06:19:47;;;;;;;8.05;4.95;;;;;;;-0.36;96.69;99771.16;5027305;28;20018;-89
2021/11/09 06:22:13;;;;;;;12.73;6.00;;;;;;;-0.51;96.58;99762.75;5027177;28;20025;-89
2021/11/09 06:24:38;;;;;;;13.48;5.78;;;;;;;-0.62;97.19;99762.34;5027267;28;20021;-89
2021/11/09 06:27:04;;;;;;;8.52;5.80;;;;;;;-0.64;97.49;99761.38;5027055;28;20018;-89
2021/11/09 06:29:29;;;;;;;7.97;4.57;;;;;;;-0.62;97.03;99770.09;5026755;28;20030;-89
2021/11/09 06:31:57;;;;;;;10.77;4.53;;;;;;;-0.72;97.26;99762.78;5026645;28;20091;-89
2021/11/09 06:34:23;;;;;;;8.13;4.95;;;;;;;-0.56;96.87;99775.53;5026683;28;20045;-89
2021/11/09 06:36:48;;;;;;;7.20;4.88;;;;;;;-0.62;96.45;99770.09;5026493;28;20025;-89
2021/11/09 06:39:14;;;;;;;11.00;5.70;;;;;;;-0.71;96.50;99767.13;5027045;28;20025;-89
2021/11/09 06:41:39;;;;;;;8.13;5.07;;;;;;;-0.65;96.34;99780.31;5026633;28;20048;-89
2021/11/09 06:44:05;;;;;;;8.55;5.10;;;;;;;-0.62;96.21;99775.28;5026736;28;20018;-89
2021/11/09 06:46:31;;;;;;;5.78;4.18;;;;;;;-0.54;96.24;99783.34;5025905;28;20190;-89
2021/11/09 06:48:56;;;;;;;8.98;4.82;;;;;;;-0.46;96.18;99788.03;5026707;28;20022;-89
2021/11/09 06:51:22;;;;;;;7.43;4.47;;;;;;;-0.52;96.23;99792.94;5026418;28;20026;-89
2021/11/09 06:53:47;;;;;;;7.25;4.50;;;;;;;-0.52;95.97;99792.94;5026882;28;20025;-88
2021/11/09 06:56:13;;;;;;;8.77;5.45;;;;;;;-0.51;95.93;99794.69;5026324;28;20021;-89
2021/11/09 06:58:38;;;;;;;8.23;5.50;;;;;;;-0.48;95.65;99793.94;5026349;28;20018;-89
2021/11/09 07:01:05;;;;;;;11.05;4.70;;;;;;;-0.43;95.60;99793.31;5026226;28;20022;-89
2021/11/09 07:03:33;;;;;;;6.93;4.40;;;;;;;-0.52;95.66;99803.28;5026263;28;20026;-89
2021/11/09 07:05:58;;;;;;;9.82;5.00;;;;;;;-0.58;96.02;99807.28;5025986;28;20038;-89
2021/11/09 07:08:24;;;;;;;9.13;5.25;;;;;;;-0.50;96.32;99809.38;5026275;28;20076;-89
2021/11/09 07:10:49;;;;;;;8.75;5.22;;;;;;;-0.60;96.31;99798.59;5026106;28;20194;-89
2021/11/09 07:13:15;;;;;;;9.30;5.03;;;;;;;-0.46;96.52;99810.41;5026084;28;20041;-89
2021/11/09 07:15:40;;;;;;;7.50;4.93;;;;;;;-0.33;96.42;99810.09;5026052;28;20096;-89
2021/11/09 07:18:07;;;;;;;6.95;4.45;;;;;;;-0.33;96.71;99816.16;5026356;28;20025;-89
2021/11/09 07:20:33;;;;;;;9.13;5.00;;;;;;;-0.39;96.85;99805.56;5025996;28;20255;-89
2021/11/09 07:23:00;;;;;;;7.90;4.75;;;;;;;-0.23;96.83;99818.31;5026193;28;20101;-88
2021/11/09 07:25:27;;;;;;;7.60;5.38;;;;;;;-0.19;96.51;99825.38;5025949;28;20028;-88
2021/11/09 07:27:53;;;;;;;7.60;4.60;;;;;;;-0.14;96.23;99821.28;5027349;28;20044;-89
2021/11/09 07:30:18;;;;;;;10.32;5.43;;;;;;;-0.12;96.40;99827.38;5025886;28;20021;-89
2021/11/09 07:32:46;;;;;;;9.25;4.55;;;;;;;-0.01;96.22;99830.41;5026121;28;20017;-88
2021/11/09 07:35:13;;;;;;;7.15;4.57;;;;;;;0.03;96.08;99815.91;5025691;28;20048;-88
2021/11/09 07:37:39;;;;;;;9.00;5.28;;;;;;;-0.02;95.98;99824.38;5025966;28;20025;-88
2021/11/09 07:40:06;;;;;;;10.43;7.38;;;;;;;-0.14;96.26;99818.69;5025945;28;20053;-89
2021/11/09 07:42:31;;;;;;;12.57;6.05;;;;;;;-0.15;96.57;99827.25;5025592;28;20044;-89
2021/11/09 07:44:57;;;;;;;11.32;6.50;;;;;;;-0.02;97.01;99829.56;5025884;28;20045;-89
2021/11/09 07:47:24;;;;;;;14.80;7.55;;;;;;;0.14;96.75;99824.97;5025644;28;20021;-89
2021/11/09 07:49:50;;;;;;;9.90;6.10;;;;;;;0.24;97.21;99828.00;5025496;28;20022;-88
2021/11/09 07:52:16;;;;;;;8.68;5.50;;;;;;;0.30;97.54;99830.84;5025398;28;20059;-88
2021/11/09 07:54:48;;;;;;;7.38;5.13;;;;;;;0.33;97.73;99833.53;5025119;28;20022;-88
2021/11/09 07:57:15;;;;;;;;;;;;;;;0.47;97.73;99831.50;5024745;28;20084;-88
2021/11/09 08:02:15;;;;;;;10.05;5.78;;;;;;;0.89;97.96;99827.97;5026035;28;20018;-88
2021/11/09 08:04:51;;;;;;;9.50;5.10;;;;;;;1.39;97.20;99835.88;5025287;28;20025;-88
2021/11/09 08:07:23;;;;;;;7.32;4.57;;;;;;;1.61;95.23;99835.78;5024648;28;20292;-89
2021/11/09 08:09:49;;;;;;;9.30;4.57;;;;;;;3.08;92.67;99834.50;5024976;28;20021;-89
2021/11/09 08:12:14;;;;;;;8.18;3.95;;;;;;;4.36;87.10;99855.38;5024933;28;20022;-89
2021/11/09 08:14:40;;;;;;;6.18;4.13;;;;;;;5.06;81.52;99846.56;5024642;28;20021;-89
2021/11/09 08:17:06;;;;;;;5.97;3.85;;;;;;;5.19;80.64;99853.81;5024687;28;20076;-89
2021/11/09 08:19:32;;;;;;;7.22;4.05;;;;;;;6.07;77.47;99865.16;5024528;28;20032;-89
2021/11/09 08:21:59;;;;;;;5.75;3.60;;;;;;;7.20;75.77;99870.47;5025578;28;20025;-89
2021/11/09 08:24:25;;;;;;;5.53;3.65;;;;;;;7.73;71.93;99864.16;5024671;28;20317;-89
2021/11/09 08:26:53;;;;;;;6.57;3.30;;;;;;;7.82;72.53;99859.00;5024339;28;20299;-89
2021/11/09 08:29:23;;;;;;;5.72;3.53;;;;;;;8.59;70.27;99865.91;5024196;28;20026;-89
2021/11/09 08:31:49;;;;;;;5.53;3.58;;;;;;;8.90;69.13;99853.00;5024158;28;20305;-89
2021/11/09 08:34:15;;;;;;;8.98;5.28;;;;;;;9.25;67.96;99851.47;5024421;28;20102;-89
2021/11/09 08:36:44;;;;;;;30.85;17.08;;;;;;;8.62;68.38;99842.31;5023891;28;20097;-89
2021/11/09 08:39:12;;;;;;;12.80;7.43;;;;;;;7.82;71.32;99826.69;5024015;28;20025;-89
2021/11/09 08:41:45;;;;;;;17.50;9.38;;;;;;;8.36;70.82;99833.34;5024004;28;20017;-89
2021/11/09 08:44:16;;;;;;;16.73;10.35;;;;;;;7.97;72.46;99819.84;5023854;28;20026;-89
2021/11/09 08:46:54;;;;;;;15.25;9.70;;;;;;;8.16;74.12;99813.91;5024041;28;20021;-89
2021/11/09 08:49:22;;;;;;;16.38;9.52;;;;;;;8.30;75.95;99822.81;5024183;28;20033;-89
2021/11/09 08:51:50;;;;;;;18.10;10.82;;;;;;;8.82;73.12;99828.47;5023953;28;20072;-87
2021/11/09 08:54:23;;;;;;;16.55;10.02;;;;;;;8.75;73.73;99823.16;5023741;28;20048;-87
2021/11/09 08:56:59;;;;;;;14.75;7.22;;;;;;;9.33;72.90;99828.75;5023344;28;20022;-87
2021/11/09 09:04:56;;;;;;;12.25;6.10;;;;;;;10.70;69.67;99835.16;5024435;28;20071;-87
2021/11/09 09:07:23;;;;;;;11.85;5.78;;;;;;;11.36;68.54;99840.28;5023305;28;20103;-87
2021/11/09 09:09:49;;;;;;;14.45;8.88;;;;;;;11.07;68.42;99834.22;5023289;28;20033;-87
2021/11/09 09:12:14;;;;;;;15.55;7.28;;;;;;;10.83;70.54;99823.75;5023209;28;20026;-87
2021/11/09 09:14:40;;;;;;;16.10;6.38;;;;;;;11.47;68.24;99838.50;5023528;28;20264;-87
2021/11/09 09:17:05;;;;;;;20.15;9.10;;;;;;;11.73;66.77;99834.00;5023365;28;20026;-87
2021/11/09 09:22:16;;;;;;;27.48;11.10;;;;;;;10.23;71.53;99807.97;5024285;28;20024;-87
2021/11/09 09:29:52;;;;;;;22.80;10.30;;;;;;;10.40;71.03;99807.09;5024595;28;20034;-87
2021/11/09 09:54:44;;;;;;;18.40;6.68;;;;;;;9.75;72.13;99818.38;5023996;28;20057;-87
2021/11/09 09:57:08;;;;;;;21.55;6.35;;;;;;;9.16;74.05;99798.88;5023538;28;20037;-87
2021/11/09 09:59:37;;;;;;;19.40;6.25;;;;;;;9.38;73.87;99800.72;5022758;28;20029;-87
2021/11/09 10:02:10;;;;;;;21.50;7.43;;;;;;;8.83;76.00;99794.34;5022688;28;20254;-87
2021/11/09 10:04:40;;;;;;;17.63;7.03;;;;;;;9.04;73.71;99793.56;5022553;28;20022;-87
2021/11/09 10:07:06;;;;;;;19.65;5.18;;;;;;;9.04;73.73;99801.44;5022842;28;20049;-87
2021/11/09 10:09:45;;;;;;;18.63;5.63;;;;;;;9.03;74.89;99797.06;5022915;28;20030;-87
2021/11/09 10:12:28;;;;;;;16.00;4.85;;;;;;;9.26;72.67;99813.81;5022734;28;20025;-87
2021/11/09 10:14:56;;;;;;;19.33;4.85;;;;;;;9.26;71.41;99808.53;5022982;28;20089;-87
2021/11/09 10:17:25;;;;;;;16.75;4.72;;;;;;;9.28;72.41;99798.94;5022587;28;20026;-87
2021/11/09 10:19:52;;;;;;;15.63;4.38;;;;;;;9.69;70.35;99803.47;5022694;28;20028;-87
2021/11/09 10:22:28;;;;;;;12.65;4.25;;;;;;;9.33;70.98;99802.47;5026224;28;20036;-87
2021/11/09 10:25:04;;;;;;;14.77;4.00;;;;;;;9.26;72.41;99800.66;5026177;28;20026;-87
2021/11/09 10:27:32;;;;;;;12.40;4.32;;;;;;;9.62;70.95;99800.81;5026088;28;20017;-87
2021/11/09 10:30:03;;;;;;;12.75;4.40;;;;;;;9.79;69.79;99793.84;5026111;28;20274;-87
2021/11/09 10:32:30;;;;;;;17.70;4.68;;;;;;;9.50;71.04;99779.75;5026083;28;20033;-87
2021/11/09 10:35:01;;;;;;;12.48;3.92;;;;;;;9.40;71.29;99780.59;5026002;28;20029;-87
2021/11/09 10:37:33;;;;;;;17.02;3.65;;;;;;;9.20;70.64;99784.91;5026330;28;20416;-87
2021/11/09 10:40:01;;;;;;;12.80;4.00;;;;;;;9.33;70.37;99797.22;5026273;28;20088;-87
2021/11/09 10:42:28;;;;;;;12.07;3.50;;;;;;;9.16;70.74;99772.59;5027211;28;20025;-87
2021/11/09 10:44:59;;;;;;;13.52;3.42;;;;;;;9.70;68.09;99793.81;5026142;28;20117;-87
2021/11/09 10:47:31;;;;;;;11.40;4.07;;;;;;;9.74;68.42;99769.28;5025791;28;20022;-87
2021/11/09 10:50:03;;;;;;;13.15;3.53;;;;;;;9.60;69.52;99777.16;5026899;28;20026;-86
2021/11/09 10:52:34;;;;;;;8.63;3.38;;;;;;;9.69;68.41;99776.28;5025920;28;20244;-86
2021/11/09 10:58:03;;;;;;;7.22;2.83;;;;;;;9.65;67.61;99764.03;5026748;28;20101;-87
2021/11/09 11:03:49;;;;;;;8.38;2.95;;;;;;;9.81;66.79;99777.19;5026868;28;20022;-87
2021/11/09 11:06:22;;;;;;;12.60;3.13;;;;;;;9.70;68.01;99763.16;5025230;28;20044;-86
2021/11/09 11:09:03;;;;;;;9.50;2.63;;;;;;;9.86;66.03;99775.44;5025302;28;20021;-87
2021/11/09 11:11:31;;;;;;;11.63;2.70;;;;;;;9.82;66.08;99767.56;5025614;28;20026;-86
2021/11/09 11:14:06;;;;;;;9.13;2.35;;;;;;;9.93;67.00;99758.81;5025198;28;20333;-86
2021/11/09 11:16:38;;;;;;;14.00;2.53;;;;;;;9.76;67.32;99747.41;5025144;28;20036;-87
2021/11/09 11:19:04;;;;;;;17.17;5.03;;;;;;;9.90;67.13;99739.53;5026285;28;20018;-86
2021/11/09 11:21:29;;;;;;;8.57;2.58;;;;;;;10.03;65.32;99739.50;5026523;28;20022;-87
2021/11/09 11:23:55;;;;;;;10.07;3.05;;;;;;;10.18;65.64;99749.19;5025062;28;20028;-87
2021/11/09 11:26:22;;;;;;;15.65;4.80;;;;;;;10.07;65.45;99750.97;5025024;28;20024;-87
2021/11/09 11:28:50;;;;;;;7.95;2.50;;;;;;;10.17;64.60;99744.81;5025286;28;20321;-86
2021/11/09 11:31:16;;;;;;;8.30;2.05;;;;;;;9.97;64.38;99730.75;5025182;28;20190;-86
2021/11/09 11:33:43;;;;;;;13.38;2.40;;;;;;;9.93;64.17;99728.97;5024868;28;20018;-86
2021/11/09 11:36:09;;;;;;;8.85;2.47;;;;;;;9.96;64.22;99719.34;5024824;28;20022;-87
2021/11/09 11:38:39;;;;;;;10.75;2.70;;;;;;;10.04;64.32;99727.25;5025118;28;20017;-86
2021/11/09 11:41:05;;;;;;;4.97;2.00;;;;;;;9.98;64.80;99727.25;5025025;28;20097;-86
2021/11/09 11:43:43;;;;;;;9.52;2.05;;;;;;;10.26;64.18;99713.25;5024746;28;20321;-87
2021/11/09 11:46:10;;;;;;;8.48;2.33;;;;;;;10.38;64.77;99707.97;5024648;28;20018;-87
2021/11/09 11:49:03;;;;;;;7.60;2.63;;;;;;;10.21;63.98;99705.34;5024658;28;20022;-87
2021/11/09 11:51:35;;;;;;;7.53;2.65;;;;;;;10.17;64.40;99702.72;5024582;28;20022;-86
2021/11/09 11:54:01;;;;;;;6.07;2.13;;;;;;;10.13;63.19;99691.31;5024848;28;20063;-87
2021/11/09 11:56:39;;;;;;;6.63;2.15;;;;;;;10.09;64.28;99694.84;5024660;28;20058;-87
2021/11/09 11:59:25;;;;;;;12.68;2.60;;;;;;;10.09;65.36;99688.69;5024632;28;20025;-87
2021/11/09 12:01:58;;;;;;;12.30;3.00;;;;;;;10.14;64.87;99684.31;5011038;28;20064;-86
2021/11/09 12:04:42;;;;;;;7.80;2.30;;;;;;;10.06;63.44;99691.31;5024536;28;20024;-86
2021/11/09 12:07:17;;;;;;;7.53;2.17;;;;;;;9.71;63.84;99690.44;5024257;28;20065;-86
2021/11/09 12:09:47;;;;;;;7.93;2.38;;;;;;;9.74;63.19;99685.16;5024731;28;20033;-86
2021/11/09 12:12:18;;;;;;;8.02;1.95;;;;;;;9.85;62.67;99688.69;5024209;28;20028;-89
2021/11/09 12:14:47;;;;;;;6.60;2.33;;;;;;;9.76;62.67;99683.41;5024578;28;20287;-89
2021/11/09 12:17:29;;;;;;;6.05;2.10;;;;;;;9.77;62.64;99677.25;5024651;28;20032;-89
2021/11/09 12:19:55;;;;;;;8.07;2.00;;;;;;;9.76;62.89;99683.41;5024714;28;20022;-89
2021/11/09 12:22:23;;;;;;;8.50;2.10;;;;;;;9.63;63.88;99681.66;5024531;28;20028;-89
2021/11/09 12:24:52;;;;;;;7.00;2.05;;;;;;;9.60;63.75;99681.66;5024350;28;20052;-89
2021/11/09 12:27:20;;;;;;;6.88;2.38;;;;;;;9.59;64.18;99672.03;5024294;28;20321;-89
2021/11/09 12:29:50;;;;;;;7.07;2.53;;;;;;;9.79;64.76;99673.78;5024596;28;20060;-89
2021/11/09 12:32:36;;;;;;;5.82;2.05;;;;;;;9.71;65.09;99675.53;5025578;28;20084;-89
2021/11/09 12:35:10;;;;;;;8.07;2.47;;;;;;;9.98;63.55;99680.78;5024060;28;20026;-89
2021/11/09 12:38:02;;;;;;;7.85;2.05;;;;;;;9.79;64.27;99672.91;5024241;28;20225;-89
2021/11/09 12:40:46;;;;;;;11.57;2.40;;;;;;;9.76;64.92;99671.16;5024081;28;20022;-89
2021/11/09 12:43:30;;;;;;;9.65;2.10;;;;;;;9.70;64.91;99663.25;5023610;28;20257;-89
2021/11/09 12:46:34;;;;;;;4.90;2.03;;;;;;;9.70;64.57;99659.75;5025096;28;20052;-89
2021/11/09 12:49:07;;;;;;;7.50;2.50;;;;;;;9.81;63.43;99658.00;5024088;28;20313;-89
2021/11/09 12:51:46;;;;;;;12.57;2.65;;;;;;;9.73;63.88;99652.75;5023793;28;20372;-89
2021/11/09 12:54:20;;;;;;;13.40;2.58;;;;;;;9.74;63.75;99661.50;5023957;28;20093;-89
2021/11/09 12:56:58;;;;;;;12.88;3.08;;;;;;;9.68;64.13;99658.88;5023901;28;20071;-89
2021/11/09 12:59:29;;;;;;;21.83;3.90;;;;;;;9.73;63.55;99658.00;5023599;28;20089;-89
2021/11/09 13:09:52;;;;;;;9.85;2.88;;;;;;;9.76;63.84;99654.50;5024951;28;20202;-89
2021/11/09 13:12:30;;;;;;;10.43;3.00;;;;;;;9.75;63.70;99647.50;5023720;28;20076;-89
2021/11/09 13:15:18;;;;;;;11.85;2.90;;;;;;;9.71;64.63;99637.84;5023631;28;20032;-89
2021/11/09 13:17:55;;;;;;;12.07;2.92;;;;;;;9.73;65.31;99642.22;5023505;28;20036;-89
2021/11/09 13:20:24;;;;;;;12.27;4.03;;;;;;;9.71;65.25;99654.47;5023553;28;20040;-89
2021/11/09 13:22:49;;;;;;;17.52;3.38;;;;;;;9.65;65.45;99645.75;5023550;28;20297;-89
2021/11/09 13:25:15;;;;;;;14.32;3.58;;;;;;;9.70;64.82;99646.59;5024627;28;20021;-89
2021/11/09 13:27:48;;;;;;;19.20;4.05;;;;;;;9.77;65.21;99637.81;5023765;28;20096;-89
2021/11/09 13:30:22;;;;;;;14.07;3.55;;;;;;;9.76;65.48;99647.50;5023948;28;20060;-89
2021/11/09 13:32:50;;;;;;;11.57;3.47;;;;;;;9.81;65.81;99650.13;5023559;28;20033;-89
2021/11/09 13:35:20;;;;;;;13.43;3.88;;;;;;;9.77;66.60;99643.09;5023402;28;20252;-89
2021/11/09 13:37:47;;;;;;;15.50;4.70;;;;;;;9.66;66.71;99640.47;5023730;28;20041;-89
2021/11/09 13:40:13;;;;;;;15.20;4.25;;;;;;;9.72;66.63;99647.50;5023302;28;20071;-89
2021/11/09 13:42:40;;;;;;;18.20;3.97;;;;;;;9.71;66.51;99640.50;5023308;28;20093;-89
2021/11/09 13:45:16;;;;;;;12.02;3.75;;;;;;;9.73;66.84;99643.97;5023424;28;20302;-89
2021/11/09 13:47:42;;;;;;;9.00;3.30;;;;;;;9.76;66.60;99646.59;5023353;28;20317;-89
2021/11/09 13:50:12;;;;;;;16.15;4.45;;;;;;;9.64;67.29;99643.97;5023386;28;20060;-89
2021/11/09 13:52:56;;;;;;;16.10;4.43;;;;;;;9.58;67.28;99630.81;5023206;28;20060;-89
2021/11/09 13:55:22;;;;;;;9.25;3.50;;;;;;;9.68;66.72;99616.81;5024185;28;20028;-89
2021/11/09 13:57:49;;;;;;;15.80;4.28;;;;;;;9.57;68.17;99623.81;5027185;28;20022;-89
2021/11/09 14:00:31;;;;;;;17.20;4.40;;;;;;;9.54;68.44;99610.66;5028144;28;20373;-89
2021/11/09 14:03:08;;;;;;;16.73;4.63;;;;;;;9.52;68.64;99610.66;5027014;28;20025;-89